The Moncton/Gander FIR airspace is a lot larger than what most virtual pilots think. Online tools such as ServInfo, VATSpy and VROUTE do not properly indicated the airspace that we cover.

Here is the break down of the CZQM/QX airspace and what areas we control depending on what positions are online.

 

Moncton Center (CZQM) Online & Gander Center (CZQX) Offline

     

Moncton Center controls Moncton (QM) airspace.

Moncton Center controls Gander Domestic (QX) airspace.

Moncton Center controls Sept Îles (ZV) airspace FL290 and above.

 

Moncton Center (CZQM) Online & Gander Center (CZQX) Online

Moncton Center controls Moncton (QM) airspace.

Moncton Center controls Sept Îles (ZV) airspace FL290 and above.

Moncton Center controls QM HI airspace FL290 and above.

Remaining airpace is controlled by Gander Center

 

Gander Center (CZQX) Online & Moncton Center (CZQM) Offline

Gander Center controls Gander (QX) airspace.

Gander Center controls Sept Îles (ZV) airspace FL290 and above.

Gander Center controls Gander Low (QX LO) airspace all flight levels.

 

Gander Center (CZQX) Online & Moncton Center (CZQM) Online

Gander Center controls Gander (QX) airspace.

Gander Center controls Sept Îles (ZV) airspace FL280 and below.

Gander Center controls QX LO airspace FL280 and below.

Remaining airpace is controlled by Moncton Center.

 

Halifax Terminal (CYHZ) Online

Class D airspace.

Surface to FL230.

 

Moncton Center (CYQM) Airspace

Controls Moncton (CYQM) & Charlottetown (CYYG).

Surface to FL280.

For Flight Simulation Use Only – Not To Be Used For Real World Navigation

CYHZ 260300Z 12013KT 10SM SCT004 OVC020 07/07 A2997 RMK SF3SC5 CIG RAG SLP152

CYQM 260300Z 07006KT 15SM OVC100 09/06 A2999 RMK AC8 SLP160

CYFC 260300Z AUTO 05009G15KT 9SM OVC110 12/07 A2995 RMK SLP144

CYQX 260300Z 16004KT 20SM FEW250 01/M02 A3014 RMK CI1 SLP216

CYYR 260300Z 06006KT 15SM FEW065 BKN090 BKN140 04/M02 A3007 RMK SC1AC5AC2 SLP185

 

 

Digita il nome di un aeroporto: